Time;durP1;ratioP1;P1;durP2;ratioP2;P2;SDS_P1;SDS_P2;PMS_P1;PMS_P2;Temp;Humidity;BMP_temperature;BMP_pressure;BME280_temperature;BME280_humidity;BME280_pressure;Samples;Min_cycle;Max_cycle;Signal;HPM_P1;HPM_P2
2022/06/19 00:01:18;;;;;;;;;18.00;18.00;;;;;28.67;52.03;100414.13;5067722;28;45638;-67
2022/06/19 00:03:49;;;;;;;;;14.75;14.75;;;;;28.39;53.66;100439.75;5070917;28;46629;-66
2022/06/19 00:06:15;;;;;;;;;16.50;15.50;;;;;28.44;53.66;100431.38;5063243;28;45643;-67
2022/06/19 00:08:40;;;;;;;;;17.25;17.00;;;;;27.98;54.87;100433.91;5064906;28;45338;-68
2022/06/19 00:11:10;;;;;;;;;14.00;10.50;;;;;27.93;55.14;100450.63;5067002;28;45419;-68
2022/06/19 00:13:37;;;;;;;;;13.75;12.75;;;;;27.93;54.30;100441.41;5062694;28;47995;-67
2022/06/19 00:16:02;;;;;;;;;14.75;14.75;;;;;27.48;54.79;100442.75;5063830;28;46048;-69
2022/06/19 00:18:28;;;;;;;;;12.75;12.00;;;;;26.77;57.96;100488.59;5072789;28;45310;-67
2022/06/19 00:20:53;;;;;;;;;14.75;12.75;;;;;26.73;57.34;100477.16;5067741;28;45635;-67
2022/06/19 00:23:19;;;;;;;;;9.00;9.00;;;;;26.32;57.98;100521.19;5072944;28;45339;-67
2022/06/19 00:25:44;;;;;;;;;14.00;14.00;;;;;26.38;57.88;100524.03;5066104;28;45323;-67
2022/06/19 00:28:10;;;;;;;;;15.00;13.25;;;;;26.47;56.26;100500.22;5064966;28;45248;-67
2022/06/19 00:30:36;;;;;;;;;13.67;11.00;;;;;26.09;56.61;100529.75;5066637;28;45409;-67
2022/06/19 00:33:01;;;;;;;;;12.67;9.00;;;;;25.90;56.37;100531.13;5080129;27;47919;-67
2022/06/19 00:35:27;;;;;;;;;15.33;12.67;;;;;25.65;56.90;100509.28;5065211;28;45415;-69
2022/06/19 00:37:54;;;;;;;;;11.33;11.00;;;;;25.72;55.36;100503.53;5074874;28;45374;-67
2022/06/19 00:40:20;;;;;;;;;9.67;5.00;;;;;25.13;56.68;100494.75;5079925;27;45711;-67
2022/06/19 00:42:46;;;;;;;;;14.33;9.33;;;;;25.06;56.40;100505.13;5088742;27;48386;-67
2022/06/19 00:45:32;;;;;;;;;7.00;6.00;;;;;25.02;55.93;100504.81;5064437;27;45429;-68
2022/06/19 00:48:00;;;;;;;;;7.33;6.33;;;;;24.65;56.36;100523.78;5061597;28;45357;-68
2022/06/19 00:50:32;;;;;;;;;10.33;8.00;;;;;24.68;55.56;100503.84;5065149;28;45368;-68
2022/06/19 00:52:59;;;;;;;;;9.33;7.00;;;;;24.39;56.34;100516.00;5067687;28;45397;-68
2022/06/19 00:55:29;;;;;;;;;15.00;10.67;;;;;23.96;56.38;100514.41;5063817;28;45456;-68
2022/06/19 00:58:02;;;;;;;;;9.00;7.67;;;;;23.71;57.16;100536.03;5073605;28;45290;-68
2022/06/19 01:00:29;;;;;;;;;10.00;9.67;;;;;23.59;57.12;100538.78;5065637;28;45326;-68
2022/06/19 01:02:59;;;;;;;;;12.33;12.00;;;;;23.56;57.33;100560.59;5074022;28;46411;-68
2022/06/19 01:05:26;;;;;;;;;12.67;11.33;;;;;23.39;57.34;100545.69;5064386;28;45374;-68
2022/06/19 01:07:52;;;;;;;;;11.00;8.33;;;;;23.43;56.34;100555.22;5066092;28;45354;-67
2022/06/19 01:10:18;;;;;;;;;10.00;10.00;;;;;23.15;57.30;100570.56;5079145;28;45447;-68
2022/06/19 01:12:48;;;;;;;;;17.75;14.50;;;;;22.56;59.14;100584.31;5067047;27;45353;-67
2022/06/19 01:15:17;;;;;;;;;9.67;9.67;;;;;22.47;59.67;100567.16;5063207;28;45551;-66
2022/06/19 01:17:46;;;;;;;;;10.00;9.67;;;;;22.41;59.39;100570.84;5071595;28;45472;-70
2022/06/19 01:20:12;;;;;;;;;16.00;13.33;;;;;22.42;59.42;100547.63;5079299;28;45410;-68
2022/06/19 01:22:40;;;;;;;;;13.75;12.00;;;;;22.33;59.72;100552.63;5065810;28;46257;-68
2022/06/19 01:25:09;;;;;;;;;19.50;14.25;;;;;22.24;60.09;100550.38;5061594;28;45363;-68
2022/06/19 01:30:25;;;;;;;;;14.25;13.00;;;;;22.02;59.88;100549.97;5055978;28;45430;-67
2022/06/19 01:32:51;;;;;;;;;14.25;13.25;;;;;21.98;59.64;100545.97;5064274;28;46622;-67
2022/06/19 01:35:20;;;;;;;;;17.25;15.00;;;;;21.65;60.65;100557.28;5062961;28;45932;-66
2022/06/19 01:37:48;;;;;;;;;11.25;11.25;;;;;21.35;61.01;100562.63;5071613;28;45413;-67
2022/06/19 01:40:23;;;;;;;;;17.25;14.00;;;;;21.42;61.71;100568.94;5062245;27;45375;-67
2022/06/19 01:42:49;;;;;;;;;12.33;11.00;;;;;21.50;61.24;100589.94;5071299;28;46749;-67
2022/06/19 01:45:15;;;;;;;;;16.67;11.67;;;;;21.53;60.91;100576.53;5065055;27;45767;-67
2022/06/19 01:47:41;;;;;;;;;19.00;14.33;;;;;21.46;60.92;100572.97;5068819;27;45444;-67
2022/06/19 01:50:11;;;;;;;;;14.75;13.00;;;;;21.54;60.14;100555.28;5064696;28;45339;-67
2022/06/19 01:52:36;;;;;;;;;19.50;15.75;;;;;21.66;60.58;100556.22;5070594;28;47595;-67
2022/06/19 01:55:11;;;;;;;;;17.00;15.50;;;;;21.56;59.33;100520.78;5070860;28;45301;-67
2022/06/19 01:57:40;;;;;;;;;13.50;12.50;;;;;21.58;59.67;100524.16;5074701;28;45238;-67
2022/06/19 02:00:09;;;;;;;;;10.00;10.00;;;;;21.65;59.14;100513.91;5068332;28;45555;-67
2022/06/19 02:02:35;;;;;;;;;15.00;12.25;;;;;21.38;60.14;100503.28;5072414;28;45350;-67
2022/06/19 02:05:01;;;;;;;;;14.67;14.00;;;;;21.32;60.05;100500.38;5067813;27;45678;-67
2022/06/19 02:07:28;;;;;;;;;17.50;12.75;;;;;21.04;60.98;100504.59;5072381;28;45432;-67
2022/06/19 02:09:55;;;;;;;;;16.25;12.50;;;;;21.08;61.77;100538.97;5069265;28;45330;-67
2022/06/19 02:12:23;;;;;;;;;15.50;13.25;;;;;20.81;62.09;100594.34;5072353;28;46247;-69
2022/06/19 02:14:49;;;;;;;;;14.67;12.33;;;;;20.98;61.50;100601.06;5067724;27;45529;-67
2022/06/19 02:17:30;;;;;;;;;17.33;14.33;;;;;;;;5080473;28;45338;-67
2022/06/19 02:19:56;;;;;;;;;12.67;10.00;;;;;21.18;60.33;100609.28;5066859;27;45480;-67
2022/06/19 02:22:21;;;;;;;;;14.00;10.67;;;;;21.21;60.46;100600.53;5078940;28;45332;-68
2022/06/19 02:24:47;;;;;;;;;15.50;11.75;;;;;21.14;60.55;100609.91;5064175;28;45381;-68
2022/06/19 02:27:12;;;;;;;;;9.33;7.67;;;;;21.32;60.23;100618.34;5077255;28;45405;-67
2022/06/19 02:29:41;;;;;;;;;11.00;9.00;;;;;21.09;60.61;100620.78;5065774;28;45375;-67
2022/06/19 02:32:19;;;;;;;;;10.00;8.33;;;;;21.14;61.06;100626.47;5076577;28;46197;-68
2022/06/19 02:34:45;;;;;;;;;12.00;10.00;;;;;21.08;61.10;100603.34;5064198;28;45397;-67
2022/06/19 02:37:17;;;;;;;;;10.67;10.00;;;;;21.15;60.95;100612.47;5077962;28;45490;-67
2022/06/19 02:39:57;;;;;;;;;11.67;9.67;;;;;20.92;61.52;100612.13;5066006;28;45456;-68
2022/06/19 02:42:43;;;;;;;;;14.25;11.75;;;;;20.95;61.41;100640.19;5079292;28;46040;-67
2022/06/19 02:45:16;;;;;;;;;13.00;11.00;;;;;20.94;61.80;100655.06;5057629;28;45267;-68
2022/06/19 02:47:42;;;;;;;;;17.67;12.67;;;;;20.98;61.75;100659.06;5079021;28;45320;-68
2022/06/19 02:50:11;;;;;;;;;12.25;11.25;;;;;21.03;61.18;100663.09;5065688;27;45326;-68
2022/06/19 02:52:36;;;;;;;;;13.25;12.75;;;;;20.60;62.93;100722.44;5073261;28;45491;-68
2022/06/19 02:55:02;;;;;;;;;4.33;3.00;;;;;20.31;64.42;100888.44;5067057;27;45370;-67
2022/06/19 02:57:28;;;;;;;;;11.67;7.67;;;;;20.65;63.16;100859.88;5074673;28;45288;-68
2022/06/19 02:59:54;;;;;;;;;12.50;12.50;;;;;20.96;61.61;100760.66;5070896;27;45234;-67
2022/06/19 03:02:19;;;;;;;;;8.33;6.00;;;;;20.83;62.70;100803.97;5070302;28;48420;-67
2022/06/19 03:04:49;;;;;;;;;12.33;10.33;;;;;20.86;62.30;100856.91;5070117;27;45496;-67
2022/06/19 03:07:14;;;;;;;;;12.00;10.00;;;;;20.93;62.38;100834.78;5069836;28;45456;-68
2022/06/19 03:09:39;;;;;;;;;8.67;7.67;;;;;20.87;61.76;100830.97;5068583;28;45324;-68
2022/06/19 03:12:07;;;;;;;;;17.00;12.00;;;;;20.75;61.85;100813.34;5077321;28;46272;-67
2022/06/19 03:14:32;;;;;;;;;16.00;10.00;;;;;20.82;61.54;100767.22;5069460;28;45223;-68
2022/06/19 03:16:57;;;;;;;;;11.67;9.33;;;;;20.71;62.05;100802.94;5076753;28;45224;-67
2022/06/19 03:19:23;;;;;;;;;13.33;13.33;;;;;20.88;61.00;100722.22;5070101;27;45174;-67
2022/06/19 03:21:49;;;;;;;;;16.00;13.25;;;;;20.52;62.39;100807.41;5074952;28;45401;-67
2022/06/19 03:24:15;;;;;;;;;14.00;12.33;;;;;20.56;62.85;100772.78;5067522;28;45363;-67
2022/06/19 03:26:40;;;;;;;;;14.33;12.33;;;;;20.50;62.69;100768.13;5071818;28;45456;-67
2022/06/19 03:29:05;;;;;;;;;2.67;2.67;;;;;20.31;63.66;100824.13;5069458;27;45348;-67
2022/06/19 03:31:31;;;;;;;;;16.75;15.00;;;;;20.36;62.99;100791.28;5071787;28;46554;-67
2022/06/19 03:33:57;;;;;;;;;18.25;12.50;;;;;20.53;62.65;100764.94;5069983;28;45294;-67
2022/06/19 03:36:24;;;;;;;;;12.50;12.50;;;;;20.56;62.53;100784.69;5070239;28;45606;-67
2022/06/19 03:38:49;;;;;;;;;14.67;12.00;;;;;20.57;61.68;100777.25;5072074;27;45310;-67
2022/06/19 03:41:15;;;;;;;;;13.33;10.33;;;;;20.66;61.32;100798.06;5067761;28;46635;-67
2022/06/19 03:43:40;;;;;;;;;20.75;13.00;;;;;20.48;61.78;100779.38;5073837;27;45171;-67
2022/06/19 03:46:14;;;;;;;;;14.00;13.00;;;;;20.49;61.69;100767.28;5069410;28;45638;-67
2022/06/19 03:48:42;;;;;;;;;16.75;11.75;;;;;20.50;61.27;100781.94;5065219;28;45258;-67
2022/06/19 03:51:07;;;;;;;;;19.50;16.50;;;;;20.39;61.71;100788.06;5066437;28;45383;-67
2022/06/19 03:53:32;;;;;;;;;15.00;15.00;;;;;20.39;62.15;100788.06;5069841;28;45313;-67
2022/06/19 03:55:58;;;;;;;;;19.25;15.25;;;;;20.46;61.24;100788.91;5067107;28;45402;-69
2022/06/19 03:58:23;;;;;;;;;20.25;15.50;;;;;20.51;61.61;100776.19;5075397;28;45480;-68
2022/06/19 04:00:49;;;;;;;;;18.75;17.75;;;;;20.53;61.53;100742.84;5066745;28;45394;-67
2022/06/19 04:03:14;;;;;;;;;17.75;15.25;;;;;20.61;61.01;100731.59;5071464;28;45404;-67
2022/06/19 04:05:40;;;;;;;;;17.00;15.75;;;;;20.48;61.40;100728.84;5082078;27;45491;-67
2022/06/19 04:08:05;;;;;;;;;15.67;14.33;;;;;20.49;60.94;100733.31;5070899;28;45331;-68
2022/06/19 04:10:31;;;;;;;;;14.50;13.25;;;;;20.33;61.74;100744.72;5064024;28;45370;-67
2022/06/19 04:12:56;;;;;;;;;18.00;14.00;;;;;20.34;61.39;100805.28;5080131;28;45531;-67
2022/06/19 04:15:22;;;;;;;;;12.67;10.33;;;;;20.39;61.31;100881.91;5064179;28;45635;-68
2022/06/19 04:17:47;;;;;;;;;15.67;13.67;;;;;20.58;60.50;100905.94;5079614;28;45604;-67
2022/06/19 04:20:13;;;;;;;;;15.33;13.67;;;;;20.79;60.01;100816.53;5063734;28;45587;-67
2022/06/19 04:22:40;;;;;;;;;13.50;13.50;;;;;20.86;62.71;100717.97;5076499;28;45136;-68
2022/06/19 04:25:07;;;;;;;;;15.00;11.67;;;;;20.50;67.33;100653.06;5063792;28;45279;-68
2022/06/19 04:27:33;;;;;;;;;20.75;16.75;;;;;20.17;70.55;100625.47;5073816;28;45350;-68
2022/06/19 04:29:58;;;;;;;;;19.00;18.00;;;;;19.80;73.20;100692.28;5062184;28;46158;-68
2022/06/19 04:32:24;;;;;;;;;11.33;11.33;;;;;20.06;74.15;100713.53;5077318;28;45464;-68
2022/06/19 04:34:49;;;;;;;;;17.25;15.75;;;;;20.16;73.35;100705.72;5063945;27;45308;-68
2022/06/19 04:37:14;;;;;;;;;18.50;15.75;;;;;20.23;72.58;100697.44;5073801;28;45451;-68
2022/06/19 04:39:40;;;;;;;;;14.33;13.00;;;;;20.38;70.29;100687.88;5065923;28;46031;-68
2022/06/19 04:42:07;;;;;;;;;14.33;13.00;;;;;19.99;71.87;100710.78;5072740;28;45437;-68
2022/06/19 04:44:32;;;;;;;;;13.00;9.67;;;;;19.59;73.51;100758.59;5066954;28;45389;-67
2022/06/19 04:46:58;;;;;;;;;15.33;14.00;;;;;19.68;72.94;100733.41;5065862;28;45384;-68
2022/06/19 04:49:23;;;;;;;;;14.33;10.67;;;;;19.90;74.31;100753.41;5070058;28;45340;-67
2022/06/19 04:51:49;;;;;;;;;15.00;12.00;;;;;19.68;72.79;100758.22;5068311;28;45387;-68
2022/06/19 04:54:14;;;;;;;;;12.00;11.00;;;;;19.88;72.80;100669.19;5067544;28;45210;-68
2022/06/19 04:56:40;;;;;;;;;10.67;9.33;;;;;19.76;74.93;100652.44;5068790;28;45531;-68
2022/06/19 04:59:06;;;;;;;;;11.67;9.00;;;;;19.72;73.91;100687.00;5067818;28;48232;-68
2022/06/19 05:01:35;;;;;;;;;10.67;10.33;;;;;19.63;73.11;100683.59;5065572;28;45333;-68
2022/06/19 05:04:05;;;;;;;;;9.00;9.00;;;;;19.51;72.86;100701.75;5068992;28;45341;-67
2022/06/19 05:06:31;;;;;;;;;7.33;6.00;;;;;19.47;73.55;100713.41;5066407;28;45338;-68
2022/06/19 05:08:57;;;;;;;;;9.33;7.33;;;;;19.67;72.08;100700.53;5066644;28;47515;-68
2022/06/19 05:11:25;;;;;;;;;5.67;4.33;;;;;19.53;72.21;100704.31;5067014;28;45425;-67
2022/06/19 05:13:50;;;;;;;;;9.67;5.67;;;;;19.26;71.13;100731.75;5067787;27;45393;-68
2022/06/19 05:16:18;;;;;;;;;8.00;8.00;;;;;19.48;72.54;100737.16;5066591;28;45627;-68
2022/06/19 05:18:44;;;;;;;;;8.33;7.00;;;;;19.66;72.16;100735.50;5067983;27;46325;-68
2022/06/19 05:21:11;;;;;;;;;8.33;8.33;;;;;19.75;70.63;100755.47;5065076;28;45590;-68
2022/06/19 05:23:39;;;;;;;;;10.00;9.00;;;;;19.75;71.61;100736.19;5069850;28;45210;-68
2022/06/19 05:26:34;;;;;;;;;8.33;4.00;;;;;19.49;72.18;100673.59;5065387;28;45760;-68
2022/06/19 05:29:01;;;;;;;;;7.00;7.00;;;;;19.49;74.35;100645.19;5061222;28;45465;-69
2022/06/19 05:31:27;;;;;;;;;8.67;6.00;;;;;19.54;73.97;100640.72;5066382;28;45381;-68
2022/06/19 05:33:54;;;;;;;;;10.67;8.00;;;;;19.58;74.62;100638.41;5066320;27;45286;-68
2022/06/19 05:36:20;;;;;;;;;9.33;6.33;;;;;19.54;72.24;100595.78;5067615;28;45545;-68
2022/06/19 05:38:46;;;;;;;;;7.00;6.33;;;;;19.08;76.13;100546.94;5075210;28;45409;-68
2022/06/19 05:41:12;;;;;;;;;7.33;7.00;;;;;18.81;77.97;100542.44;5083115;27;45428;-68
2022/06/19 05:43:38;;;;;;;;;10.33;7.00;;;;;18.85;76.58;100552.81;5074156;28;45164;-68
2022/06/19 05:46:13;;;;;;;;;8.67;7.33;;;;;18.75;78.02;100614.81;5067663;28;45173;-67
2022/06/19 05:48:38;;;;;;;;;8.33;6.00;;;;;18.80;76.33;100672.84;5067593;28;45444;-67
2022/06/19 05:51:07;;;;;;;;;12.00;7.00;;;;;18.85;78.78;100700.63;5068108;28;45369;-67
2022/06/19 05:53:36;;;;;;;;;8.33;5.67;;;;;18.84;78.35;100704.44;5063452;27;45338;-68
2022/06/19 05:56:03;;;;;;;;;7.00;5.33;;;;;18.95;79.61;100670.81;5065228;28;45183;-68
2022/06/19 05:58:29;;;;;;;;;4.00;3.67;;;;;19.01;76.28;100614.91;5068725;28;45546;-68
2022/06/19 06:00:54;;;;;;;;;7.00;7.00;;;;;19.09;75.00;100598.22;5064808;28;45379;-67
2022/06/19 06:03:21;;;;;;;;;7.00;5.67;;;;;19.11;75.53;100581.47;5067054;28;45460;-67
2022/06/19 06:05:47;;;;;;;;;4.00;4.00;;;;;19.04;75.94;100575.97;5065366;28;45508;-68
2022/06/19 06:08:14;;;;;;;;;6.67;6.00;;;;;18.90;74.24;100576.97;5066679;28;46248;-68
2022/06/19 06:10:41;;;;;;;;;5.33;3.00;;;;;18.53;73.67;100554.34;5064627;28;45638;-68
2022/06/19 06:13:07;;;;;;;;;5.00;5.00;;;;;18.56;74.16;100531.09;5071168;28;45495;-68
2022/06/19 06:15:33;;;;;;;;;4.00;4.00;;;;;18.64;73.48;100496.00;5064660;28;45219;-68
2022/06/19 06:18:00;;;;;;;;;3.67;3.67;;;;;18.74;73.29;100509.38;5065592;28;46913;-67
2022/06/19 06:20:25;;;;;;;;;6.00;4.00;;;;;18.67;72.54;100500.25;5062953;28;45447;-68
2022/06/19 06:22:51;;;;;;;;;5.00;2.67;;;;;18.60;73.71;100585.53;5068910;28;45698;-68
2022/06/19 06:25:16;;;;;;;;;5.67;4.00;;;;;18.81;70.67;100569.94;5062667;28;45639;-68
2022/06/19 06:27:42;;;;;;;;;5.00;5.00;;;;;18.76;71.79;100638.53;5068230;28;45347;-69
2022/06/19 06:30:08;;;;;;;;;5.00;5.00;;;;;18.69;71.99;100714.72;5077526;27;45360;-68
2022/06/19 06:32:33;;;;;;;;;4.67;4.67;;;;;18.63;72.18;100708.94;5068388;28;45271;-70
2022/06/19 06:34:58;;;;;;;;;5.00;5.00;;;;;18.82;73.47;100673.50;5062280;28;45477;-68
2022/06/19 06:37:24;;;;;;;;;7.00;4.67;;;;;18.44;75.99;100764.66;5067610;28;46922;-68
2022/06/19 06:39:49;;;;;;;;;7.67;6.00;;;;;18.62;76.52;100663.25;5070873;28;45679;-68
2022/06/19 06:42:15;;;;;;;;;3.67;3.67;;;;;18.36;76.99;100654.78;5088067;27;45353;-68
2022/06/19 06:44:41;;;;;;;;;3.67;2.33;;;;;18.42;78.80;100816.25;5074674;28;45400;-67
2022/06/19 06:47:06;;;;;;;;;5.00;4.00;;;;;18.52;77.68;100728.75;5071929;28;47962;-67
2022/06/19 06:49:32;;;;;;;;;6.00;1.00;;;;;18.32;78.36;100683.75;5072837;28;45353;-67
2022/06/19 06:51:57;;;;;;;;;5.00;5.00;;;;;18.25;77.98;100671.84;5065695;28;45385;-67
2022/06/19 06:54:23;;;;;;;;;6.33;3.67;;;;;18.53;77.60;100667.16;5067226;28;45497;-67
2022/06/19 06:56:48;;;;;;;;;3.00;2.67;;;;;18.69;75.83;100640.41;5070716;28;45386;-67
2022/06/19 06:59:14;;;;;;;;;6.00;5.33;;;;;18.62;77.10;100580.69;5067569;28;45262;-68
2022/06/19 07:01:40;;;;;;;;;7.00;4.00;;;;;18.52;77.55;100558.16;5064130;28;45303;-68
2022/06/19 07:04:05;;;;;;;;;5.67;3.67;;;;;18.54;77.93;100583.56;5068761;28;45400;-68
2022/06/19 07:06:31;;;;;;;;;6.67;4.00;;;;;18.47;77.59;100546.09;5067472;28;45438;-68
2022/06/19 07:08:57;;;;;;;;;6.67;5.00;;;;;18.59;77.67;100536.22;5063783;28;45571;-68
2022/06/19 07:11:26;;;;;;;;;8.67;5.33;;;;;18.51;76.13;100550.09;5070933;28;45368;-68
2022/06/19 07:13:52;;;;;;;;;6.00;3.00;;;;;18.38;76.04;100627.06;5071983;27;45570;-68
2022/06/19 07:16:18;;;;;;;;;7.00;4.00;;;;;18.15;78.15;100690.56;5066954;28;48191;-68
2022/06/19 07:18:44;;;;;;;;;4.67;3.67;;;;;18.12;77.94;100715.72;5071581;27;45387;-68
2022/06/19 07:21:11;;;;;;;;;6.33;5.00;;;;;18.41;78.84;100720.22;5066790;28;45473;-68
2022/06/19 07:23:36;;;;;;;;;7.67;6.67;;;;;18.43;77.02;100729.94;5065943;28;45407;-69
2022/06/19 07:26:02;;;;;;;;;8.00;5.00;;;;;18.38;78.38;100729.69;5066305;28;45386;-69
2022/06/19 07:28:27;;;;;;;;;8.33;7.00;;;;;18.46;79.33;100696.53;5068000;28;45420;-68
2022/06/19 07:30:53;;;;;;;;;5.00;4.33;;;;;18.56;76.61;100669.53;5066726;28;45346;-67
2022/06/19 07:33:19;;;;;;;;;6.33;3.33;;;;;18.70;77.63;100691.66;5076263;27;45316;-67
2022/06/19 07:35:44;;;;;;;;;6.00;6.00;;;;;18.44;76.81;100835.34;5066237;27;45494;-67
2022/06/19 07:38:09;;;;;;;;;7.00;5.67;;;;;18.54;78.10;100894.50;5075512;27;45380;-67
2022/06/19 07:40:36;;;;;;;;;6.33;4.33;;;;;18.77;76.51;100874.19;5067970;28;45177;-67
2022/06/19 07:43:03;;;;;;;;;6.33;4.67;;;;;18.92;75.68;100841.94;5075711;28;45406;-68
2022/06/19 07:45:30;;;;;;;;;4.67;4.67;;;;;19.21;73.19;100844.47;5068654;28;46204;-67
2022/06/19 07:50:40;;;;;;;;;5.00;5.00;;;;;19.48;71.16;100809.66;5064864;28;45301;-68
2022/06/19 07:53:05;;;;;;;;;7.67;6.00;;;;;19.56;69.77;100836.19;5068670;27;45325;-68
2022/06/19 07:55:31;;;;;;;;;5.67;4.67;;;;;19.47;69.43;100810.72;5063659;28;47178;-68
2022/06/19 07:58:01;;;;;;;;;3.00;3.00;;;;;19.63;68.00;100798.50;5070530;28;45331;-68
2022/06/19 08:00:32;;;;;;;;;6.67;5.00;;;;;19.81;69.45;100807.03;5062531;28;45408;-68
2022/06/19 08:02:57;;;;;;;;;8.67;5.00;;;;;19.38;68.73;100867.84;5063474;28;45374;-68
2022/06/19 08:05:26;;;;;;;;;7.00;7.00;;;;;19.11;70.20;100987.16;5061792;28;45321;-68
2022/06/19 08:07:52;;;;;;;;;5.67;5.67;;;;;19.16;70.21;101027.88;5061779;28;45362;-68
2022/06/19 08:10:25;;;;;;;;;4.00;4.00;;;;;19.27;70.89;100978.63;5062278;28;45516;-68
2022/06/19 08:12:52;;;;;;;;;6.33;5.00;;;;;19.54;69.89;100860.34;5057633;28;45639;-68
2022/06/19 08:15:18;;;;;;;;;7.00;5.67;;;;;19.46;70.02;100831.03;5062747;28;46112;-68
2022/06/19 08:17:44;;;;;;;;;10.33;7.00;;;;;19.58;74.77;100839.63;5056350;28;45325;-68
2022/06/19 08:20:11;;;;;;;;;6.00;5.00;;;;;19.82;76.88;100815.09;5060877;28;45341;-68
2022/06/19 08:22:38;;;;;;;;;13.00;8.00;;;;;20.19;75.18;100760.44;5060288;28;45785;-68
2022/06/19 08:25:04;;;;;;;;;10.00;7.00;;;;;20.56;77.31;100747.94;5063425;28;46070;-68
2022/06/19 08:27:29;;;;;;;;;10.00;8.00;;;;;20.74;72.44;100759.19;5060121;28;45932;-68
2022/06/19 08:29:54;;;;;;;;;10.33;8.33;;;;;20.68;73.54;100759.19;5063462;28;45306;-69
2022/06/19 08:32:20;;;;;;;;;11.00;7.33;;;;;20.43;71.42;100772.81;5058761;28;45593;-69
2022/06/19 08:34:45;;;;;;;;;8.33;7.00;;;;;20.17;69.29;100768.91;5063425;28;45347;-69
2022/06/19 08:37:12;;;;;;;;;7.00;7.00;;;;;20.18;71.20;100754.06;5055745;28;46663;-68
2022/06/19 08:39:38;;;;;;;;;11.00;7.33;;;;;20.13;68.52;100729.03;5062111;28;45365;-68
2022/06/19 08:42:37;;;;;;;;;6.33;6.33;;;;;20.18;70.05;100720.97;5056585;28;45547;-68
2022/06/19 08:45:21;;;;;;;;;9.67;8.67;;;;;20.10;70.86;100715.66;5053617;28;45365;-69
2022/06/19 08:48:02;;;;;;;;;13.33;10.00;;;;;20.07;70.64;100710.56;5045412;28;45564;-69
2022/06/19 08:50:47;;;;;;;;;6.67;6.67;;;;;20.07;70.82;100701.44;5056045;28;45331;-68
2022/06/19 08:53:30;;;;;;;;;11.33;7.67;;;;;19.76;73.51;100691.03;5059908;28;45439;-68
2022/06/19 08:56:23;;;;;;;;;10.33;9.67;;;;;19.56;71.75;100690.97;5059748;28;45455;-68
2022/06/19 08:59:01;;;;;;;;;11.67;10.33;;;;;19.69;71.09;100670.88;5060597;28;45417;-69
2022/06/19 09:01:50;;;;;;;;;11.67;10.67;;;;;19.80;73.28;100672.97;5052307;28;45326;-68
2022/06/19 09:07:09;;;;;;;;;11.33;9.00;;;;;20.06;70.89;100694.22;5060372;28;45468;-69
2022/06/19 09:09:41;;;;;;;;;8.00;8.00;;;;;20.41;70.47;100705.94;5062408;28;45445;-68
2022/06/19 09:12:25;;;;;;;;;16.00;12.00;;;;;20.27;68.10;100721.59;5054194;28;45248;-69
2022/06/19 09:14:59;;;;;;;;;11.67;10.67;;;;;20.27;70.40;100746.44;5061980;28;45315;-69
2022/06/19 09:17:49;;;;;;;;;12.67;8.33;;;;;19.96;70.77;100759.97;5057981;28;45449;-69
2022/06/19 09:20:30;;;;;;;;;14.00;11.67;;;;;20.11;70.70;100772.53;5049634;28;45365;-68
2022/06/19 09:23:07;;;;;;;;;12.67;12.00;;;;;20.34;70.27;100791.47;5060398;28;45381;-70
2022/06/19 09:25:44;;;;;;;;;13.67;12.33;;;;;20.72;69.06;100804.66;5059763;28;45324;-69
2022/06/19 09:28:18;;;;;;;;;12.00;12.00;;;;;21.07;68.40;100813.53;5058718;28;45337;-69
2022/06/19 09:31:03;;;;;;;;;12.67;11.67;;;;;21.26;66.07;100823.69;5058810;28;45426;-69
2022/06/19 09:33:47;;;;;;;;;12.33;10.00;;;;;21.46;65.35;100835.56;5061301;28;45315;-69
2022/06/19 09:36:35;;;;;;;;;14.33;12.00;;;;;21.78;63.45;100822.66;5056239;28;45216;-69
2022/06/19 09:39:11;;;;;;;;;15.33;12.67;;;;;22.05;63.70;100832.59;5059379;28;46130;-69
2022/06/19 09:41:41;;;;;;;;;5.67;5.00;;;;;22.18;62.10;100831.66;5056453;28;45366;-68
2022/06/19 09:44:24;;;;;;;;;11.33;10.33;;;;;22.22;61.47;100849.50;5062392;28;45215;-69
2022/06/19 09:47:12;;;;;;;;;12.67;12.67;;;;;22.25;61.87;100850.97;5056305;28;45313;-68
2022/06/19 09:49:50;;;;;;;;;19.50;16.00;;;;;22.57;61.56;100852.69;5061804;28;45219;-69
2022/06/19 09:52:29;;;;;;;;;15.33;13.33;;;;;22.76;59.72;100857.25;5054270;28;45521;-69
2022/06/19 09:55:03;;;;;;;;;13.50;12.25;;;;;22.45;58.20;100851.69;5056772;28;45283;-68
2022/06/19 09:57:38;;;;;;;;;14.33;13.33;;;;;22.98;56.84;100862.41;5056103;28;45667;-69
2022/06/19 10:00:17;;;;;;;;;16.25;15.25;;;;;23.18;58.56;100863.03;5062006;28;45481;-68
2022/06/19 10:02:56;;;;;;;;;16.67;15.67;;;;;23.33;57.42;100851.59;5053907;28;45353;-69
2022/06/19 10:05:37;;;;;;;;;16.00;13.67;;;;;23.41;55.95;100845.75;5060775;28;45373;-70
2022/06/19 10:08:08;;;;;;;;;16.00;12.67;;;;;23.29;56.58;100849.31;5061595;28;45327;-69
2022/06/19 10:10:46;;;;;;;;;16.50;14.00;;;;;23.29;58.16;100843.75;5059744;28;45483;-69
2022/06/19 10:13:30;;;;;;;;;15.50;14.75;;;;;23.69;57.17;100823.91;5058814;28;45412;-69
2022/06/19 10:15:58;;;;;;;;;16.33;12.67;;;;;23.74;57.28;100824.06;5063379;28;45349;-66
2022/06/19 10:18:28;;;;;;;;;20.75;18.50;;;;;23.52;55.81;100828.41;5065611;28;45444;-67
2022/06/19 10:21:02;;;;;;;;;15.67;13.00;;;;;23.86;57.04;100813.88;5078518;27;46374;-68
2022/06/19 10:24:01;;;;;;;;;9.75;9.75;;;;;24.54;54.01;100821.88;5065175;28;45477;-68
2022/06/19 10:26:55;;;;;;;;;13.75;12.50;;;;;24.40;54.56;100812.06;5062468;28;45371;-68
2022/06/19 10:29:56;;;;;;;;;18.25;18.25;;;;;24.13;54.92;100799.59;5065365;28;45385;-68
2022/06/19 10:32:40;;;;;;;;;17.50;14.25;;;;;24.92;53.05;100801.16;5060496;28;45481;-68
2022/06/19 10:35:28;;;;;;;;;17.50;15.50;;;;;24.25;53.15;100786.66;5063129;28;45468;-67
2022/06/19 10:38:33;;;;;;;;;18.25;18.00;;;;;24.78;54.24;100781.06;5063503;28;45384;-68
2022/06/19 10:42:00;;;;;;;;;18.00;17.00;;;;;24.54;53.74;100785.75;5062276;28;45593;-68
2022/06/19 10:44:41;;;;;;;;;20.00;17.75;;;;;25.48;51.16;100792.16;5062073;28;45479;-68
2022/06/19 10:47:25;;;;;;;;;17.75;16.00;;;;;25.92;49.56;100793.41;5044554;28;45435;-68
2022/06/19 10:50:12;;;;;;;;;16.75;15.75;;;;;26.27;49.42;100815.53;5062305;27;45337;-68
2022/06/19 10:53:07;;;;;;;;;23.50;20.00;;;;;26.41;47.58;100796.56;5057431;28;45690;-68
2022/06/19 10:55:36;;;;;;;;;25.75;21.50;;;;;26.34;48.14;100803.16;5063171;28;45532;-68
2022/06/19 10:58:16;;;;;;;;;17.00;15.00;;;;;26.55;47.93;100807.13;5063365;28;45419;-68
2022/06/19 11:00:42;;;;;;;;;16.75;16.75;;;;;26.24;48.67;100811.25;5052170;28;45278;-68
2022/06/19 11:06:15;;;;;;;;;23.75;18.75;;;;;26.37;47.95;100795.38;5052069;28;45383;-69
2022/06/19 11:08:53;;;;;;;;;21.75;17.25;;;;;26.44;48.79;100784.94;5061250;28;46242;-69
2022/06/19 11:11:20;;;;;;;;;17.00;17.00;;;;;26.55;47.29;100784.00;5059085;28;45241;-68
2022/06/19 11:14:01;;;;;;;;;15.25;15.25;;;;;26.22;49.39;100809.84;5064974;28;45453;-68
2022/06/19 11:16:29;;;;;;;;;20.50;20.00;;;;;25.84;50.07;100802.13;5060728;28;45262;-69
2022/06/19 11:18:57;;;;;;;;;16.50;16.50;;;;;26.26;48.65;100817.47;5064478;28;45440;-68
2022/06/19 11:21:26;;;;;;;;;18.00;16.75;;;;;25.89;49.21;100821.72;5060198;28;45426;-68
2022/06/19 11:23:56;;;;;;;;;18.75;17.75;;;;;26.66;48.32;100813.75;5063283;28;45520;-68
2022/06/19 11:26:42;;;;;;;;;16.00;14.50;;;;;27.14;46.61;100824.28;5061754;28;45880;-68
2022/06/19 11:29:13;;;;;;;;;17.75;16.25;;;;;26.71;46.50;100822.19;5064578;28;45433;-68
2022/06/19 11:32:00;;;;;;;;;18.75;17.75;;;;;26.70;46.38;100814.91;5060968;28;45483;-68
2022/06/19 11:34:45;;;;;;;;;18.50;17.25;;;;;26.85;46.66;100798.44;5063382;28;45326;-68
2022/06/19 11:37:22;;;;;;;;;20.75;18.00;;;;;26.46;47.03;100780.78;5054584;28;45437;-68
2022/06/19 11:40:07;;;;;;;;;16.25;13.50;;;;;26.84;46.05;100790.31;5058253;28;45409;-68
2022/06/19 11:42:37;;;;;;;;;12.00;12.00;;;;;26.58;46.08;100811.38;5057964;28;45449;-67